sensor_id;sensor_type;location;lat;lon;timestamp;pressure;altitude;pressure_sealevel;temperature;humidity
10466;BME280;5280;42.600;23.556;2023-04-02T00:02:31;92550.38;;;6.10;100.00
10466;BME280;5280;42.600;23.556;2023-04-02T00:05:25;92548.09;;;6.05;100.00
10466;BME280;5280;42.600;23.556;2023-04-02T00:07:56;92542.00;;;6.05;100.00
10466;BME280;5280;42.600;23.556;2023-04-02T00:10:29;92545.72;;;6.02;100.00
10466;BME280;5280;42.600;23.556;2023-04-02T00:13:02;92524.72;;;5.91;100.00
10466;BME280;5280;42.600;23.556;2023-04-02T00:15:29;92536.88;;;5.92;100.00
10466;BME280;5280;42.600;23.556;2023-04-02T00:17:56;92540.84;;;5.85;100.00
10466;BME280;5280;42.600;23.556;2023-04-02T00:20:25;92527.00;;;5.72;100.00
10466;BME280;5280;42.600;23.556;2023-04-02T00:22:53;92552.63;;;5.80;100.00
10466;BME280;5280;42.600;23.556;2023-04-02T00:25:21;92538.31;;;5.73;100.00
10466;BME280;5280;42.600;23.556;2023-04-02T00:27:48;92545.34;;;5.72;100.00
10466;BME280;5280;42.600;23.556;2023-04-02T00:30:15;92528.28;;;5.67;100.00
10466;BME280;5280;42.600;23.556;2023-04-02T00:32:42;92524.59;;;5.69;100.00
10466;BME280;5280;42.600;23.556;2023-04-02T00:35:10;92515.34;;;5.76;100.00
10466;BME280;5280;42.600;23.556;2023-04-02T00:37:40;92452.56;;;5.40;100.00
10466;BME280;5280;42.600;23.556;2023-04-02T00:40:15;92505.31;;;5.70;100.00
10466;BME280;5280;42.600;23.556;2023-04-02T00:42:45;92515.53;;;5.73;100.00
10466;BME280;5280;42.600;23.556;2023-04-02T00:45:21;92491.25;;;5.36;100.00
10466;BME280;5280;42.600;23.556;2023-04-02T00:47:49;92536.56;;;5.84;100.00
10466;BME280;5280;42.600;23.556;2023-04-02T00:50:21;92554.06;;;5.84;100.00
10466;BME280;5280;42.600;23.556;2023-04-02T00:52:52;92543.81;;;5.81;100.00
10466;BME280;5280;42.600;23.556;2023-04-02T00:55:23;92550.50;;;5.85;100.00
10466;BME280;5280;42.600;23.556;2023-04-02T00:57:51;92562.34;;;5.90;100.00
10466;BME280;5280;42.600;23.556;2023-04-02T01:00:21;92550.78;;;5.93;100.00
10466;BME280;5280;42.600;23.556;2023-04-02T01:03:24;92541.28;;;5.92;100.00
10466;BME280;5280;42.600;23.556;2023-04-02T01:05:56;92545.88;;;5.88;100.00
10466;BME280;5280;42.600;23.556;2023-04-02T01:08:36;92538.94;;;5.76;100.00
10466;BME280;5280;42.600;23.556;2023-04-02T01:11:19;92509.00;;;5.44;100.00
10466;BME280;5280;42.600;23.556;2023-04-02T01:13:53;92548.97;;;5.58;100.00
10466;BME280;5280;42.600;23.556;2023-04-02T01:16:32;92550.88;;;5.56;100.00
10466;BME280;5280;42.600;23.556;2023-04-02T01:19:20;92554.34;;;5.57;100.00
10466;BME280;5280;42.600;23.556;2023-04-02T01:22:00;92552.88;;;5.53;100.00
10466;BME280;5280;42.600;23.556;2023-04-02T01:24:32;92501.78;;;5.24;100.00
10466;BME280;5280;42.600;23.556;2023-04-02T01:27:03;92561.47;;;5.55;100.00
10466;BME280;5280;42.600;23.556;2023-04-02T01:29:35;92563.25;;;5.54;100.00
10466;BME280;5280;42.600;23.556;2023-04-02T01:32:06;92574.56;;;5.55;100.00
10466;BME280;5280;42.600;23.556;2023-04-02T01:34:35;92559.53;;;5.46;100.00
10466;BME280;5280;42.600;23.556;2023-04-02T01:37:12;92558.25;;;5.51;100.00
10466;BME280;5280;42.600;23.556;2023-04-02T01:40:17;92559.09;;;5.52;100.00
10466;BME280;5280;42.600;23.556;2023-04-02T01:42:51;92558.59;;;5.47;100.00
10466;BME280;5280;42.600;23.556;2023-04-02T01:45:22;92564.53;;;5.49;100.00
10466;BME280;5280;42.600;23.556;2023-04-02T01:47:50;92570.84;;;5.46;100.00
10466;BME280;5280;42.600;23.556;2023-04-02T01:50:23;92536.72;;;5.35;100.00
10466;BME280;5280;42.600;23.556;2023-04-02T01:52:53;92547.59;;;5.42;100.00
10466;BME280;5280;42.600;23.556;2023-04-02T01:55:29;92548.31;;;5.44;100.00
10466;BME280;5280;42.600;23.556;2023-04-02T01:58:00;92556.81;;;5.47;100.00
10466;BME280;5280;42.600;23.556;2023-04-02T02:00:30;92540.09;;;5.37;100.00
10466;BME280;5280;42.600;23.556;2023-04-02T02:02:59;92554.28;;;5.46;100.00
10466;BME280;5280;42.600;23.556;2023-04-02T02:05:26;92548.44;;;5.42;100.00
10466;BME280;5280;42.600;23.556;2023-04-02T02:07:54;92551.16;;;5.41;100.00
10466;BME280;5280;42.600;23.556;2023-04-02T02:10:24;92545.66;;;5.33;100.00
10466;BME280;5280;42.600;23.556;2023-04-02T02:12:51;92550.44;;;5.39;100.00
10466;BME280;5280;42.600;23.556;2023-04-02T02:15:20;92553.69;;;5.42;100.00
10466;BME280;5280;42.600;23.556;2023-04-02T02:17:49;92554.53;;;5.43;100.00
10466;BME280;5280;42.600;23.556;2023-04-02T02:20:16;92549.00;;;5.35;100.00
10466;BME280;5280;42.600;23.556;2023-04-02T02:22:45;92554.53;;;5.43;100.00
10466;BME280;5280;42.600;23.556;2023-04-02T02:25:15;92539.00;;;5.40;100.00
10466;BME280;5280;42.600;23.556;2023-04-02T02:27:49;92540.69;;;5.41;100.00
10466;BME280;5280;42.600;23.556;2023-04-02T02:30:23;92531.59;;;5.34;100.00
10466;BME280;5280;42.600;23.556;2023-04-02T02:33:01;92531.22;;;5.27;100.00
10466;BME280;5280;42.600;23.556;2023-04-02T02:35:33;92537.50;;;5.25;100.00
10466;BME280;5280;42.600;23.556;2023-04-02T02:38:27;92548.72;;;5.27;100.00
10466;BME280;5280;42.600;23.556;2023-04-02T02:40:59;92547.03;;;5.26;100.00
10466;BME280;5280;42.600;23.556;2023-04-02T02:43:29;92542.97;;;5.22;100.00
10466;BME280;5280;42.600;23.556;2023-04-02T02:45:57;92561.25;;;5.10;100.00
10466;BME280;5280;42.600;23.556;2023-04-02T02:48:33;92543.91;;;5.20;100.00
10466;BME280;5280;42.600;23.556;2023-04-02T02:51:05;92499.50;;;4.95;100.00
10466;BME280;5280;42.600;23.556;2023-04-02T02:53:45;92516.72;;;5.10;100.00
10466;BME280;5280;42.600;23.556;2023-04-02T02:56:14;92543.69;;;5.24;100.00
10466;BME280;5280;42.600;23.556;2023-04-02T02:58:41;92551.00;;;5.31;100.00
10466;BME280;5280;42.600;23.556;2023-04-02T03:01:08;92543.84;;;5.33;100.00
10466;BME280;5280;42.600;23.556;2023-04-02T03:03:37;92545.66;;;5.33;100.00
10466;BME280;5280;42.600;23.556;2023-04-02T03:06:06;92541.97;;;5.35;100.00
10466;BME280;5280;42.600;23.556;2023-04-02T03:08:36;92536.97;;;5.32;100.00
10466;BME280;5280;42.600;23.556;2023-04-02T03:11:09;92546.75;;;5.41;100.00
10466;BME280;5280;42.600;23.556;2023-04-02T03:13:39;92551.91;;;5.43;100.00
10466;BME280;5280;42.600;23.556;2023-04-02T03:16:10;92544.84;;;5.43;100.00
10466;BME280;5280;42.600;23.556;2023-04-02T03:18:43;92554.28;;;5.46;100.00
10466;BME280;5280;42.600;23.556;2023-04-02T03:21:21;92563.69;;;5.48;100.00
10466;BME280;5280;42.600;23.556;2023-04-02T03:23:54;92570.50;;;5.51;100.00
10466;BME280;5280;42.600;23.556;2023-04-02T03:26:26;92567.88;;;5.51;100.00
10466;BME280;5280;42.600;23.556;2023-04-02T03:28:59;92557.66;;;5.48;100.00
10466;BME280;5280;42.600;23.556;2023-04-02T03:31:32;92546.25;;;5.36;100.00
10466;BME280;5280;42.600;23.556;2023-04-02T03:34:06;92563.31;;;5.42;100.00
10466;BME280;5280;42.600;23.556;2023-04-02T03:36:40;92560.38;;;5.46;100.00
10466;BME280;5280;42.600;23.556;2023-04-02T03:39:15;92539.91;;;5.28;100.00
10466;BME280;5280;42.600;23.556;2023-04-02T03:41:45;92554.63;;;5.41;100.00
10466;BME280;5280;42.600;23.556;2023-04-02T03:44:20;92569.16;;;5.45;100.00
10466;BME280;5280;42.600;23.556;2023-04-02T03:46:52;92575.69;;;5.40;100.00
10466;BME280;5280;42.600;23.556;2023-04-02T03:49:28;92570.69;;;5.37;100.00
10466;BME280;5280;42.600;23.556;2023-04-02T03:51:59;92572.06;;;5.30;100.00
10466;BME280;5280;42.600;23.556;2023-04-02T03:54:28;92566.72;;;5.31;100.00
10466;BME280;5280;42.600;23.556;2023-04-02T03:56:55;92580.41;;;5.35;100.00
10466;BME280;5280;42.600;23.556;2023-04-02T03:59:29;92571.13;;;5.31;100.00
10466;BME280;5280;42.600;23.556;2023-04-02T04:02:01;92569.28;;;5.20;100.00
10466;BME280;5280;42.600;23.556;2023-04-02T04:04:39;92569.66;;;5.27;100.00
10466;BME280;5280;42.600;23.556;2023-04-02T04:07:14;92562.25;;;5.20;100.00
10466;BME280;5280;42.600;23.556;2023-04-02T04:09:45;92548.13;;;5.10;100.00
10466;BME280;5280;42.600;23.556;2023-04-02T04:12:23;92569.59;;;5.15;100.00
10466;BME280;5280;42.600;23.556;2023-04-02T04:14:55;92567.66;;;5.06;100.00
10466;BME280;5280;42.600;23.556;2023-04-02T04:17:30;92539.31;;;4.88;100.00
10466;BME280;5280;42.600;23.556;2023-04-02T04:20:06;92573.31;;;5.00;100.00
10466;BME280;5280;42.600;23.556;2023-04-02T04:22:39;92578.81;;;4.72;100.00
10466;BME280;5280;42.600;23.556;2023-04-02T04:25:18;92589.25;;;4.85;100.00
10466;BME280;5280;42.600;23.556;2023-04-02T04:27:55;92585.50;;;4.76;100.00
10466;BME280;5280;42.600;23.556;2023-04-02T04:30:43;92591.16;;;4.83;100.00
10466;BME280;5280;42.600;23.556;2023-04-02T04:33:16;92591.25;;;4.81;100.00
10466;BME280;5280;42.600;23.556;2023-04-02T04:35:52;92594.41;;;4.86;100.00
10466;BME280;5280;42.600;23.556;2023-04-02T04:38:28;92598.47;;;4.90;100.00
10466;BME280;5280;42.600;23.556;2023-04-02T04:41:00;92598.56;;;4.89;100.00
10466;BME280;5280;42.600;23.556;2023-04-02T04:43:36;92608.94;;;4.90;100.00
10466;BME280;5280;42.600;23.556;2023-04-02T04:46:08;92601.59;;;4.95;100.00
10466;BME280;5280;42.600;23.556;2023-04-02T04:48:39;92598.88;;;4.97;100.00
10466;BME280;5280;42.600;23.556;2023-04-02T04:51:16;92595.94;;;4.89;100.00
10466;BME280;5280;42.600;23.556;2023-04-02T04:53:46;92605.16;;;4.94;100.00
10466;BME280;5280;42.600;23.556;2023-04-02T04:56:16;92608.28;;;4.99;100.00
10466;BME280;5280;42.600;23.556;2023-04-02T04:58:48;92588.41;;;4.97;100.00
10466;BME280;5280;42.600;23.556;2023-04-02T05:01:19;92602.41;;;5.08;100.00
10466;BME280;5280;42.600;23.556;2023-04-02T05:03:50;92589.53;;;5.05;100.00
10466;BME280;5280;42.600;23.556;2023-04-02T05:06:31;92590.69;;;5.01;100.00
10466;BME280;5280;42.600;23.556;2023-04-02T05:09:03;92605.09;;;5.19;100.00
10466;BME280;5280;42.600;23.556;2023-04-02T05:11:35;92550.00;;;4.85;100.00
10466;BME280;5280;42.600;23.556;2023-04-02T05:14:06;92598.66;;;5.36;100.00
10466;BME280;5280;42.600;23.556;2023-04-02T05:16:39;92585.47;;;5.38;100.00
10466;BME280;5280;42.600;23.556;2023-04-02T05:19:11;92597.41;;;5.53;100.00
10466;BME280;5280;42.600;23.556;2023-04-02T05:21:44;92541.22;;;5.09;100.00
10466;BME280;5280;42.600;23.556;2023-04-02T05:24:32;92591.97;;;5.56;100.00
10466;BME280;5280;42.600;23.556;2023-04-02T05:27:05;92601.28;;;5.60;100.00
10466;BME280;5280;42.600;23.556;2023-04-02T05:29:40;92607.53;;;5.70;100.00
10466;BME280;5280;42.600;23.556;2023-04-02T05:32:14;92612.53;;;5.73;100.00
10466;BME280;5280;42.600;23.556;2023-04-02T05:34:44;92581.59;;;5.54;100.00
10466;BME280;5280;42.600;23.556;2023-04-02T05:37:15;92618.06;;;5.81;100.00
10466;BME280;5280;42.600;23.556;2023-04-02T05:39:44;92609.78;;;5.87;100.00
10466;BME280;5280;42.600;23.556;2023-04-02T05:42:16;92611.84;;;5.95;100.00
10466;BME280;5280;42.600;23.556;2023-04-02T05:44:54;92625.84;;;6.07;100.00
10466;BME280;5280;42.600;23.556;2023-04-02T05:47:27;92617.72;;;6.10;100.00
10466;BME280;5280;42.600;23.556;2023-04-02T05:50:14;92629.34;;;6.29;100.00
10466;BME280;5280;42.600;23.556;2023-04-02T05:52:46;92633.22;;;6.47;100.00
10466;BME280;5280;42.600;23.556;2023-04-02T05:55:30;92635.66;;;6.62;100.00
10466;BME280;5280;42.600;23.556;2023-04-02T05:58:03;92631.84;;;6.77;100.00
10466;BME280;5280;42.600;23.556;2023-04-02T06:00:45;92618.50;;;6.91;100.00
10466;BME280;5280;42.600;23.556;2023-04-02T06:03:19;92637.22;;;7.20;100.00
10466;BME280;5280;42.600;23.556;2023-04-02T06:05:49;92640.69;;;7.31;100.00
10466;BME280;5280;42.600;23.556;2023-04-02T06:08:20;92632.44;;;7.36;100.00
10466;BME280;5280;42.600;23.556;2023-04-02T06:10:51;92630.50;;;7.60;100.00
10466;BME280;5280;42.600;23.556;2023-04-02T06:13:22;92642.19;;;7.67;97.86
10466;BME280;5280;42.600;23.556;2023-04-02T06:15:49;92616.22;;;7.74;96.79
10466;BME280;5280;42.600;23.556;2023-04-02T06:18:19;92582.06;;;7.63;97.01
10466;BME280;5280;42.600;23.556;2023-04-02T06:20:49;92640.13;;;8.14;92.16
10466;BME280;5280;42.600;23.556;2023-04-02T06:23:20;92585.22;;;7.89;91.47
10466;BME280;5280;42.600;23.556;2023-04-02T06:25:52;92627.03;;;8.35;92.53
10466;BME280;5280;42.600;23.556;2023-04-02T06:28:25;92622.63;;;8.35;91.65
10466;BME280;5280;42.600;23.556;2023-04-02T06:30:56;92646.13;;;8.48;90.44
10466;BME280;5280;42.600;23.556;2023-04-02T06:33:25;92641.91;;;8.56;91.56
10466;BME280;5280;42.600;23.556;2023-04-02T06:35:53;92628.97;;;8.53;92.61
10466;BME280;5280;42.600;23.556;2023-04-02T06:38:25;92648.59;;;8.60;89.59
10466;BME280;5280;42.600;23.556;2023-04-02T06:40:57;92647.81;;;8.70;90.94
10466;BME280;5280;42.600;23.556;2023-04-02T06:43:27;92632.56;;;8.73;90.10
10466;BME280;5280;42.600;23.556;2023-04-02T06:46:00;92596.69;;;8.51;87.87
10466;BME280;5280;42.600;23.556;2023-04-02T06:48:28;92651.84;;;8.94;90.62
10466;BME280;5280;42.600;23.556;2023-04-02T06:51:01;92648.31;;;9.05;86.69
10466;BME280;5280;42.600;23.556;2023-04-02T06:53:35;92643.06;;;9.15;86.50
10466;BME280;5280;42.600;23.556;2023-04-02T06:56:11;92639.97;;;9.30;87.87
10466;BME280;5280;42.600;23.556;2023-04-02T06:58:42;92640.84;;;9.40;89.22
10466;BME280;5280;42.600;23.556;2023-04-02T07:01:14;92640.63;;;9.63;86.74
10466;BME280;5280;42.600;23.556;2023-04-02T07:03:42;92635.22;;;9.64;85.78
10466;BME280;5280;42.600;23.556;2023-04-02T07:06:13;92632.53;;;9.94;86.36
10466;BME280;5280;42.600;23.556;2023-04-02T07:08:41;92650.91;;;10.15;86.85
10466;BME280;5280;42.600;23.556;2023-04-02T07:11:09;92663.31;;;10.34;86.52
10466;BME280;5280;42.600;23.556;2023-04-02T07:13:38;92654.00;;;10.49;83.96
10466;BME280;5280;42.600;23.556;2023-04-02T07:16:07;92650.94;;;10.54;82.26
10466;BME280;5280;42.600;23.556;2023-04-02T07:18:39;92641.50;;;10.61;82.74
10466;BME280;5280;42.600;23.556;2023-04-02T07:21:06;92667.19;;;10.88;83.52
10466;BME280;5280;42.600;23.556;2023-04-02T07:23:33;92661.63;;;11.00;81.79
10466;BME280;5280;42.600;23.556;2023-04-02T07:26:01;92662.69;;;11.17;80.35
10466;BME280;5280;42.600;23.556;2023-04-02T07:28:29;92660.31;;;11.23;77.34
10466;BME280;5280;42.600;23.556;2023-04-02T07:30:56;92664.06;;;11.31;77.76
10466;BME280;5280;42.600;23.556;2023-04-02T07:33:25;92658.59;;;11.42;79.29
10466;BME280;5280;42.600;23.556;2023-04-02T07:35:53;92667.63;;;11.49;75.88
10466;BME280;5280;42.600;23.556;2023-04-02T07:38:20;92682.50;;;11.59;74.87
10466;BME280;5280;42.600;23.556;2023-04-02T07:40:48;92676.06;;;11.62;76.53
10466;BME280;5280;42.600;23.556;2023-04-02T07:43:16;92597.56;;;11.16;69.54
10466;BME280;5280;42.600;23.556;2023-04-02T07:45:43;92676.75;;;11.64;73.82
10466;BME280;5280;42.600;23.556;2023-04-02T07:48:11;92680.19;;;11.84;69.82
10466;BME280;5280;42.600;23.556;2023-04-02T07:50:38;92676.13;;;11.89;72.17
10466;BME280;5280;42.600;23.556;2023-04-02T07:53:06;92680.72;;;11.87;69.95
10466;BME280;5280;42.600;23.556;2023-04-02T07:55:33;92687.34;;;12.01;68.54
10466;BME280;5280;42.600;23.556;2023-04-02T07:58:00;92687.59;;;12.07;66.31
10466;BME280;5280;42.600;23.556;2023-04-02T08:00:28;92686.19;;;12.13;69.18
10466;BME280;5280;42.600;23.556;2023-04-02T08:02:55;92683.47;;;12.23;70.97
10466;BME280;5280;42.600;23.556;2023-04-02T08:05:22;92679.94;;;12.32;71.46
10466;BME280;5280;42.600;23.556;2023-04-02T08:07:52;92691.63;;;12.39;66.10
10466;BME280;5280;42.600;23.556;2023-04-02T08:10:21;92695.47;;;12.44;65.01
10466;BME280;5280;42.600;23.556;2023-04-02T08:12:48;92689.03;;;12.47;67.85
10466;BME280;5280;42.600;23.556;2023-04-02T08:15:15;92687.28;;;12.56;69.17
10466;BME280;5280;42.600;23.556;2023-04-02T08:17:44;92695.19;;;12.65;67.28
10466;BME280;5280;42.600;23.556;2023-04-02T08:20:15;92689.94;;;12.56;68.52
10466;BME280;5280;42.600;23.556;2023-04-02T08:22:42;92682.25;;;12.62;68.69
10466;BME280;5280;42.600;23.556;2023-04-02T08:25:09;92690.81;;;12.74;69.68
10466;BME280;5280;42.600;23.556;2023-04-02T08:27:37;92696.09;;;12.91;67.30
10466;BME280;5280;42.600;23.556;2023-04-02T08:30:05;92650.56;;;12.61;66.70
10466;BME280;5280;42.600;23.556;2023-04-02T08:32:33;92702.81;;;13.13;66.31
10466;BME280;5280;42.600;23.556;2023-04-02T08:35:01;92689.69;;;13.12;67.37
10466;BME280;5280;42.600;23.556;2023-04-02T08:37:28;92701.09;;;13.30;64.91
10466;BME280;5280;42.600;23.556;2023-04-02T08:39:54;92639.38;;;12.84;63.58
10466;BME280;5280;42.600;23.556;2023-04-02T08:42:26;92699.44;;;13.29;62.90
10466;BME280;5280;42.600;23.556;2023-04-02T08:45:05;92686.19;;;13.29;63.52
10466;BME280;5280;42.600;23.556;2023-04-02T08:47:38;92689.97;;;13.52;65.45
10466;BME280;5280;42.600;23.556;2023-04-02T08:50:14;92681.44;;;13.66;60.48
10466;BME280;5280;42.600;23.556;2023-04-02T08:52:43;92695.50;;;13.85;60.74
10466;BME280;5280;42.600;23.556;2023-04-02T08:55:17;92680.69;;;13.82;59.66
10466;BME280;5280;42.600;23.556;2023-04-02T08:57:53;92646.78;;;13.68;59.61
10466;BME280;5280;42.600;23.556;2023-04-02T09:00:27;92649.63;;;13.74;60.85
10466;BME280;5280;42.600;23.556;2023-04-02T09:02:59;92666.16;;;13.94;60.44
10466;BME280;5280;42.600;23.556;2023-04-02T09:05:36;92697.34;;;14.26;59.38
10466;BME280;5280;42.600;23.556;2023-04-02T09:08:15;92686.81;;;14.42;59.93
10466;BME280;5280;42.600;23.556;2023-04-02T09:10:49;92698.47;;;14.49;58.33
10466;BME280;5280;42.600;23.556;2023-04-02T09:13:22;92687.16;;;14.55;56.19
10466;BME280;5280;42.600;23.556;2023-04-02T09:15:51;92690.88;;;14.71;57.23
10466;BME280;5280;42.600;23.556;2023-04-02T09:18:20;92682.38;;;14.67;55.82
10466;BME280;5280;42.600;23.556;2023-04-02T09:20:48;92679.09;;;14.73;58.90
10466;BME280;5280;42.600;23.556;2023-04-02T09:23:17;92651.47;;;14.58;57.77
10466;BME280;5280;42.600;23.556;2023-04-02T09:25:47;92683.91;;;14.86;55.66
10466;BME280;5280;42.600;23.556;2023-04-02T09:28:16;92664.31;;;14.87;53.90
10466;BME280;5280;42.600;23.556;2023-04-02T09:30:59;92678.81;;;15.08;49.18
10466;BME280;5280;42.600;23.556;2023-04-02T09:33:41;92673.63;;;15.07;48.90
10466;BME280;5280;42.600;23.556;2023-04-02T09:36:18;92659.31;;;14.92;49.45
10466;BME280;5280;42.600;23.556;2023-04-02T09:38:59;92686.25;;;14.89;49.13
10466;BME280;5280;42.600;23.556;2023-04-02T09:41:28;92672.94;;;14.81;50.97
10466;BME280;5280;42.600;23.556;2023-04-02T09:44:17;92668.59;;;14.80;54.64
10466;BME280;5280;42.600;23.556;2023-04-02T09:46:50;92671.78;;;14.91;54.09
10466;BME280;5280;42.600;23.556;2023-04-02T09:49:22;92668.16;;;15.08;49.71
10466;BME280;5280;42.600;23.556;2023-04-02T09:55:11;92662.34;;;15.13;50.33
10466;BME280;5280;42.600;23.556;2023-04-02T09:57:45;92662.34;;;15.13;49.43
10466;BME280;5280;42.600;23.556;2023-04-02T10:00:18;92659.16;;;15.34;51.08
10466;BME280;5280;42.600;23.556;2023-04-02T10:02:59;92641.69;;;15.23;50.45
10466;BME280;5280;42.600;23.556;2023-04-02T10:05:27;92655.00;;;15.47;47.29
10466;BME280;5280;42.600;23.556;2023-04-02T10:08:08;92661.97;;;15.48;47.17
10466;BME280;5280;42.600;23.556;2023-04-02T10:10:40;92648.16;;;15.61;44.65
10466;BME280;5280;42.600;23.556;2023-04-02T10:13:19;92641.47;;;15.81;48.61
10466;BME280;5280;42.600;23.556;2023-04-02T10:15:53;92633.63;;;15.88;45.13
10466;BME280;5280;42.600;23.556;2023-04-02T10:18:29;92646.88;;;16.04;45.41
10466;BME280;5280;42.600;23.556;2023-04-02T10:21:00;92631.91;;;15.95;45.24
10466;BME280;5280;42.600;23.556;2023-04-02T10:23:30;92642.56;;;16.03;44.88
10466;BME280;5280;42.600;23.556;2023-04-02T10:26:06;92599.06;;;15.47;45.80
10466;BME280;5280;42.600;23.556;2023-04-02T10:28:49;92643.84;;;15.68;47.17
10466;BME280;5280;42.600;23.556;2023-04-02T10:31:21;92641.69;;;15.47;45.54
10466;BME280;5280;42.600;23.556;2023-04-02T10:33:51;92625.56;;;14.92;46.25
10466;BME280;5280;42.600;23.556;2023-04-02T10:36:27;92635.69;;;15.05;46.66
10466;BME280;5280;42.600;23.556;2023-04-02T10:39:04;92619.75;;;15.13;47.39
10466;BME280;5280;42.600;23.556;2023-04-02T10:41:38;92634.03;;;15.20;48.20
10466;BME280;5280;42.600;23.556;2023-04-02T10:44:26;92636.19;;;15.33;45.47
10466;BME280;5280;42.600;23.556;2023-04-02T10:47:07;92639.66;;;15.49;46.72
10466;BME280;5280;42.600;23.556;2023-04-02T10:49:40;92644.69;;;15.53;46.37
10466;BME280;5280;42.600;23.556;2023-04-02T10:52:09;92645.66;;;15.60;46.09
10466;BME280;5280;42.600;23.556;2023-04-02T10:54:44;92638.69;;;15.59;46.96
10466;BME280;5280;42.600;23.556;2023-04-02T10:57:22;92637.66;;;15.76;45.93
10466;BME280;5280;42.600;23.556;2023-04-02T10:59:55;92604.41;;;15.64;44.80
10466;BME280;5280;42.600;23.556;2023-04-02T11:02:29;92633.09;;;15.92;45.21
10466;BME280;5280;42.600;23.556;2023-04-02T11:05:00;92635.91;;;15.99;42.44
10466;BME280;5280;42.600;23.556;2023-04-02T11:07:42;92622.13;;;15.79;44.26
10466;BME280;5280;42.600;23.556;2023-04-02T11:10:14;92626.28;;;15.90;43.23
10466;BME280;5280;42.600;23.556;2023-04-02T11:12:50;92631.59;;;15.90;44.98
10466;BME280;5280;42.600;23.556;2023-04-02T11:15:21;92618.69;;;15.71;43.70
10466;BME280;5280;42.600;23.556;2023-04-02T11:17:49;92605.72;;;15.60;43.96
10466;BME280;5280;42.600;23.556;2023-04-02T11:23:29;92623.03;;;15.56;43.30
10466;BME280;5280;42.600;23.556;2023-04-02T11:26:34;92629.84;;;15.66;45.43
10466;BME280;5280;42.600;23.556;2023-04-02T11:29:20;92617.72;;;15.64;45.13
10466;BME280;5280;42.600;23.556;2023-04-02T11:31:50;92586.09;;;15.36;44.78
10466;BME280;5280;42.600;23.556;2023-04-02T11:37:34;92613.81;;;15.82;45.51
10466;BME280;5280;42.600;23.556;2023-04-02T11:40:02;92612.13;;;15.89;44.77
10466;BME280;5280;42.600;23.556;2023-04-02T11:42:33;92610.81;;;15.85;44.33
10466;BME280;5280;42.600;23.556;2023-04-02T11:48:29;92608.25;;;16.08;44.49
10466;BME280;5280;42.600;23.556;2023-04-02T11:50:58;92609.50;;;16.20;44.29
10466;BME280;5280;42.600;23.556;2023-04-02T11:53:31;92598.09;;;16.34;44.09
10466;BME280;5280;42.600;23.556;2023-04-02T11:56:16;92609.03;;;16.48;41.79
10466;BME280;5280;42.600;23.556;2023-04-02T11:58:53;92602.56;;;16.42;43.97
10466;BME280;5280;42.600;23.556;2023-04-02T12:01:37;92605.47;;;16.55;44.62
10466;BME280;5280;42.600;23.556;2023-04-02T12:04:37;92589.06;;;16.44;42.05
10466;BME280;5280;42.600;23.556;2023-04-02T12:10:21;92586.88;;;16.47;44.63
10466;BME280;5280;42.600;23.556;2023-04-02T12:12:49;92587.97;;;16.61;44.21
10466;BME280;5280;42.600;23.556;2023-04-02T12:15:33;92580.19;;;16.74;43.17
10466;BME280;5280;42.600;23.556;2023-04-02T12:18:04;92578.25;;;16.91;43.09
10466;BME280;5280;42.600;23.556;2023-04-02T12:20:33;92592.47;;;17.06;43.37
10466;BME280;5280;42.600;23.556;2023-04-02T12:23:00;92582.09;;;17.11;41.67
10466;BME280;5280;42.600;23.556;2023-04-02T12:25:30;92582.25;;;17.09;39.79
10466;BME280;5280;42.600;23.556;2023-04-02T12:28:04;92592.34;;;16.99;40.30
10466;BME280;5280;42.600;23.556;2023-04-02T12:30:32;92579.56;;;16.95;39.60
10466;BME280;5280;42.600;23.556;2023-04-02T12:33:16;92590.06;;;16.96;40.96
10466;BME280;5280;42.600;23.556;2023-04-02T12:35:56;92589.69;;;16.99;41.50
10466;BME280;5280;42.600;23.556;2023-04-02T12:38:24;92578.59;;;17.10;41.08
10466;BME280;5280;42.600;23.556;2023-04-02T12:40:53;92581.91;;;17.12;41.27
10466;BME280;5280;42.600;23.556;2023-04-02T12:43:24;92575.84;;;17.18;40.34
10466;BME280;5280;42.600;23.556;2023-04-02T12:45:53;92593.47;;;17.28;41.15
10466;BME280;5280;42.600;23.556;2023-04-02T12:48:21;92589.84;;;17.20;40.53
10466;BME280;5280;42.600;23.556;2023-04-02T12:50:48;92579.88;;;17.14;42.65
10466;BME280;5280;42.600;23.556;2023-04-02T12:53:23;92587.13;;;17.06;40.94
10466;BME280;5280;42.600;23.556;2023-04-02T12:55:52;92559.75;;;16.66;40.35
10466;BME280;5280;42.600;23.556;2023-04-02T12:58:37;92583.38;;;16.77;39.77
10466;BME280;5280;42.600;23.556;2023-04-02T13:01:10;92576.66;;;16.82;40.61
10466;BME280;5280;42.600;23.556;2023-04-02T13:03:37;92580.09;;;16.90;40.42
10466;BME280;5280;42.600;23.556;2023-04-02T13:06:18;92571.25;;;16.90;40.89
10466;BME280;5280;42.600;23.556;2023-04-02T13:08:48;92577.59;;;17.11;42.29
10466;BME280;5280;42.600;23.556;2023-04-02T13:11:15;92571.63;;;17.24;40.10
10466;BME280;5280;42.600;23.556;2023-04-02T13:13:43;92569.16;;;17.23;41.08
10466;BME280;5280;42.600;23.556;2023-04-02T13:16:28;92566.47;;;17.23;39.96
10466;BME280;5280;42.600;23.556;2023-04-02T13:19:23;92563.59;;;17.24;40.68
10466;BME280;5280;42.600;23.556;2023-04-02T13:21:51;92569.06;;;17.31;39.69
10466;BME280;5280;42.600;23.556;2023-04-02T13:24:21;92544.25;;;17.07;39.46
10466;BME280;5280;42.600;23.556;2023-04-02T13:26:49;92563.88;;;17.14;39.31
10466;BME280;5280;42.600;23.556;2023-04-02T13:29:22;92563.97;;;17.21;41.34
10466;BME280;5280;42.600;23.556;2023-04-02T13:31:50;92545.56;;;17.26;39.51
10466;BME280;5280;42.600;23.556;2023-04-02T13:34:17;92571.22;;;17.50;39.92
10466;BME280;5280;42.600;23.556;2023-04-02T13:36:44;92567.75;;;17.64;39.98
10466;BME280;5280;42.600;23.556;2023-04-02T13:39:13;92529.00;;;17.45;39.67
10466;BME280;5280;42.600;23.556;2023-04-02T13:41:43;92566.38;;;17.68;39.81
10466;BME280;5280;42.600;23.556;2023-04-02T13:44:18;92560.94;;;17.76;38.05
10466;BME280;5280;42.600;23.556;2023-04-02T13:46:45;92559.09;;;17.77;37.97